Ash Springs, Nevada
Current Conditions -  °F | °C
As of 11:15 AM on Thursday 30 Oct 2014 (Local Time) from KSGU Reporting Station
Clear Clear  
Wind Chill: 18°   Ceiling: Unl
Heat Index: 18°   Visibility: 10mi
Dew Point: -5°   Wind: 0mph
Humidity: 21%   Direction: NA
Pressure: 30.2"   Gusts: NA
Location:  37.6°N, 114.8°W
Report Text: KSGU 301815Z AUTO 00000KT 10SM CLR 18/M05 A3020 RMK AO1
Loading
Personal Weather Stations






























Interactive Weather Map
Tropical Storm Tracking
New forecast layout! Learn more

10-Day Weather Forecast

Advertisements
Track Severe Weather on mobile